sensor_id;sensor_type;location;lat;lon;timestamp;temperature;humidity
46458;DHT22;32155;54.076;12.092;2023-02-13T00:05:42;7.70;99.90
46458;DHT22;32155;54.076;12.092;2023-02-13T00:08:12;7.80;99.90
46458;DHT22;32155;54.076;12.092;2023-02-13T00:11:13;7.60;99.90
46458;DHT22;32155;54.076;12.092;2023-02-13T00:14:17;7.70;99.90
46458;DHT22;32155;54.076;12.092;2023-02-13T00:23:57;7.60;99.90
46458;DHT22;32155;54.076;12.092;2023-02-13T00:26:40;7.70;99.90
46458;DHT22;32155;54.076;12.092;2023-02-13T00:29:31;7.70;99.90
46458;DHT22;32155;54.076;12.092;2023-02-13T00:32:02;7.60;99.90
46458;DHT22;32155;54.076;12.092;2023-02-13T00:34:31;7.70;99.90
46458;DHT22;32155;54.076;12.092;2023-02-13T00:37:10;7.60;99.90
46458;DHT22;32155;54.076;12.092;2023-02-13T00:39:37;7.60;99.90
46458;DHT22;32155;54.076;12.092;2023-02-13T00:42:05;7.60;99.90
46458;DHT22;32155;54.076;12.092;2023-02-13T00:44:51;7.60;99.90
46458;DHT22;32155;54.076;12.092;2023-02-13T00:47:20;7.60;99.90
46458;DHT22;32155;54.076;12.092;2023-02-13T00:50:39;7.60;99.90
46458;DHT22;32155;54.076;12.092;2023-02-13T00:53:38;7.40;99.90
46458;DHT22;32155;54.076;12.092;2023-02-13T01:04:01;7.50;99.90
46458;DHT22;32155;54.076;12.092;2023-02-13T01:07:11;7.60;99.90
46458;DHT22;32155;54.076;12.092;2023-02-13T01:10:07;7.50;99.90
46458;DHT22;32155;54.076;12.092;2023-02-13T01:19:39;7.50;99.90
46458;DHT22;32155;54.076;12.092;2023-02-13T01:22:11;7.50;99.90
46458;DHT22;32155;54.076;12.092;2023-02-13T01:27:57;7.60;99.90
46458;DHT22;32155;54.076;12.092;2023-02-13T01:38:07;7.40;99.90
46458;DHT22;32155;54.076;12.092;2023-02-13T01:41:15;7.40;99.90
46458;DHT22;32155;54.076;12.092;2023-02-13T01:54:37;7.40;99.90
46458;DHT22;32155;54.076;12.092;2023-02-13T02:01:09;7.50;99.90
46458;DHT22;32155;54.076;12.092;2023-02-13T02:04:29;7.50;99.90
46458;DHT22;32155;54.076;12.092;2023-02-13T02:10:41;7.50;99.90
46458;DHT22;32155;54.076;12.092;2023-02-13T02:13:52;7.50;99.90
46458;DHT22;32155;54.076;12.092;2023-02-13T02:34:55;7.40;99.90
46458;DHT22;32155;54.076;12.092;2023-02-13T02:45:22;7.40;99.90
46458;DHT22;32155;54.076;12.092;2023-02-13T02:48:20;7.50;99.90
46458;DHT22;32155;54.076;12.092;2023-02-13T02:51:27;7.40;99.90
46458;DHT22;32155;54.076;12.092;2023-02-13T03:01:27;7.60;99.90
46458;DHT22;32155;54.076;12.092;2023-02-13T03:04:47;7.50;99.90
46458;DHT22;32155;54.076;12.092;2023-02-13T03:07:52;7.40;99.90
46458;DHT22;32155;54.076;12.092;2023-02-13T03:11:15;7.40;99.90
46458;DHT22;32155;54.076;12.092;2023-02-13T03:14:30;7.40;99.90
46458;DHT22;32155;54.076;12.092;2023-02-13T03:17:16;7.40;99.90
46458;DHT22;32155;54.076;12.092;2023-02-13T03:27:10;7.40;99.90
46458;DHT22;32155;54.076;12.092;2023-02-13T03:29:56;7.40;99.90
46458;DHT22;32155;54.076;12.092;2023-02-13T03:33:45;7.40;99.90
46458;DHT22;32155;54.076;12.092;2023-02-13T03:46:28;7.40;99.90
46458;DHT22;32155;54.076;12.092;2023-02-13T03:49:29;7.50;99.90
46458;DHT22;32155;54.076;12.092;2023-02-13T03:56:17;7.40;99.90
46458;DHT22;32155;54.076;12.092;2023-02-13T04:00:03;7.40;99.90
46458;DHT22;32155;54.076;12.092;2023-02-13T04:02:25;7.40;99.90
46458;DHT22;32155;54.076;12.092;2023-02-13T04:05:39;7.40;99.90
46458;DHT22;32155;54.076;12.092;2023-02-13T04:08:17;7.30;99.90
46458;DHT22;32155;54.076;12.092;2023-02-13T04:18:29;7.40;99.90
46458;DHT22;32155;54.076;12.092;2023-02-13T04:21:31;7.40;99.90
46458;DHT22;32155;54.076;12.092;2023-02-13T04:27:06;7.40;99.90
46458;DHT22;32155;54.076;12.092;2023-02-13T04:29:45;7.30;99.90
46458;DHT22;32155;54.076;12.092;2023-02-13T04:35:20;7.30;99.90
46458;DHT22;32155;54.076;12.092;2023-02-13T04:39:01;7.30;99.90
46458;DHT22;32155;54.076;12.092;2023-02-13T04:41:46;7.30;99.90
46458;DHT22;32155;54.076;12.092;2023-02-13T04:44:14;7.30;99.90
46458;DHT22;32155;54.076;12.092;2023-02-13T04:47:27;7.30;99.90
46458;DHT22;32155;54.076;12.092;2023-02-13T04:49:55;7.30;99.90
46458;DHT22;32155;54.076;12.092;2023-02-13T04:55:33;7.20;99.90
46458;DHT22;32155;54.076;12.092;2023-02-13T04:58:24;7.20;99.90
46458;DHT22;32155;54.076;12.092;2023-02-13T05:01:46;7.30;99.90
46458;DHT22;32155;54.076;12.092;2023-02-13T05:08:22;7.30;99.90
46458;DHT22;32155;54.076;12.092;2023-02-13T05:18:11;7.20;99.90
46458;DHT22;32155;54.076;12.092;2023-02-13T05:20:52;7.20;99.90
46458;DHT22;32155;54.076;12.092;2023-02-13T05:23:54;7.20;99.90
46458;DHT22;32155;54.076;12.092;2023-02-13T05:26:58;7.20;99.90
46458;DHT22;32155;54.076;12.092;2023-02-13T05:29:47;7.30;99.90
46458;DHT22;32155;54.076;12.092;2023-02-13T05:32:35;7.20;99.90
46458;DHT22;32155;54.076;12.092;2023-02-13T05:35:30;7.30;99.90
46458;DHT22;32155;54.076;12.092;2023-02-13T05:41:51;7.30;99.90
46458;DHT22;32155;54.076;12.092;2023-02-13T05:47:53;7.30;99.90
46458;DHT22;32155;54.076;12.092;2023-02-13T05:50:49;7.30;99.90
46458;DHT22;32155;54.076;12.092;2023-02-13T05:53:49;7.30;99.90
46458;DHT22;32155;54.076;12.092;2023-02-13T05:56:31;7.30;99.90
46458;DHT22;32155;54.076;12.092;2023-02-13T05:59:06;7.30;99.90
46458;DHT22;32155;54.076;12.092;2023-02-13T06:02:04;7.30;99.90
46458;DHT22;32155;54.076;12.092;2023-02-13T06:05:13;7.30;99.90
46458;DHT22;32155;54.076;12.092;2023-02-13T06:08:02;7.30;99.90
46458;DHT22;32155;54.076;12.092;2023-02-13T06:14:12;7.20;99.90
46458;DHT22;32155;54.076;12.092;2023-02-13T06:17:26;7.20;99.90
46458;DHT22;32155;54.076;12.092;2023-02-13T06:20:49;7.30;99.90
46458;DHT22;32155;54.076;12.092;2023-02-13T06:27:44;7.20;99.90
46458;DHT22;32155;54.076;12.092;2023-02-13T06:30:34;7.20;99.90
46458;DHT22;32155;54.076;12.092;2023-02-13T06:33:55;7.20;99.90
46458;DHT22;32155;54.076;12.092;2023-02-13T06:39:49;7.20;99.90
46458;DHT22;32155;54.076;12.092;2023-02-13T06:46:13;7.20;99.90
46458;DHT22;32155;54.076;12.092;2023-02-13T06:49:03;7.10;99.90
46458;DHT22;32155;54.076;12.092;2023-02-13T06:52:07;7.20;99.90
46458;DHT22;32155;54.076;12.092;2023-02-13T06:55:40;7.20;99.90
46458;DHT22;32155;54.076;12.092;2023-02-13T07:05:05;7.20;99.90
46458;DHT22;32155;54.076;12.092;2023-02-13T07:08:11;7.20;99.90
46458;DHT22;32155;54.076;12.092;2023-02-13T07:11:33;7.30;99.90
46458;DHT22;32155;54.076;12.092;2023-02-13T07:17:45;7.30;99.90
46458;DHT22;32155;54.076;12.092;2023-02-13T07:27:26;7.30;99.90
46458;DHT22;32155;54.076;12.092;2023-02-13T07:30:44;7.20;99.90
46458;DHT22;32155;54.076;12.092;2023-02-13T07:33:43;7.30;99.90
46458;DHT22;32155;54.076;12.092;2023-02-13T07:36:36;7.30;99.90
46458;DHT22;32155;54.076;12.092;2023-02-13T07:39:37;7.30;99.90
46458;DHT22;32155;54.076;12.092;2023-02-13T07:48:56;7.40;99.90
46458;DHT22;32155;54.076;12.092;2023-02-13T07:52:24;7.50;99.90
46458;DHT22;32155;54.076;12.092;2023-02-13T07:55:26;7.50;99.90
46458;DHT22;32155;54.076;12.092;2023-02-13T08:05:07;7.50;99.90
46458;DHT22;32155;54.076;12.092;2023-02-13T08:08:04;7.50;99.90
46458;DHT22;32155;54.076;12.092;2023-02-13T08:11:28;7.60;99.90
46458;DHT22;32155;54.076;12.092;2023-02-13T08:17:46;7.70;99.90
46458;DHT22;32155;54.076;12.092;2023-02-13T08:20:48;7.70;99.90
46458;DHT22;32155;54.076;12.092;2023-02-13T08:23:14;7.70;99.90
46458;DHT22;32155;54.076;12.092;2023-02-13T08:26:19;7.80;99.90
46458;DHT22;32155;54.076;12.092;2023-02-13T08:35:32;7.80;99.90
46458;DHT22;32155;54.076;12.092;2023-02-13T08:42:59;7.80;99.90
46458;DHT22;32155;54.076;12.092;2023-02-13T08:45:23;7.80;99.90
46458;DHT22;32155;54.076;12.092;2023-02-13T09:01:13;8.00;99.90
46458;DHT22;32155;54.076;12.092;2023-02-13T09:07:18;8.20;99.90
46458;DHT22;32155;54.076;12.092;2023-02-13T09:10:25;8.30;99.90
46458;DHT22;32155;54.076;12.092;2023-02-13T09:17:54;8.30;99.90
46458;DHT22;32155;54.076;12.092;2023-02-13T09:20:38;8.40;99.90
46458;DHT22;32155;54.076;12.092;2023-02-13T09:27:00;8.30;99.90
46458;DHT22;32155;54.076;12.092;2023-02-13T09:29:44;8.30;99.90
46458;DHT22;32155;54.076;12.092;2023-02-13T09:39:43;8.40;99.90
46458;DHT22;32155;54.076;12.092;2023-02-13T09:42:40;8.40;99.90
46458;DHT22;32155;54.076;12.092;2023-02-13T09:45:20;8.50;99.90
46458;DHT22;32155;54.076;12.092;2023-02-13T09:52:06;8.50;99.90
46458;DHT22;32155;54.076;12.092;2023-02-13T10:10:48;8.70;99.90
46458;DHT22;32155;54.076;12.092;2023-02-13T10:20:06;8.70;99.90
46458;DHT22;32155;54.076;12.092;2023-02-13T10:26:07;8.80;99.90
46458;DHT22;32155;54.076;12.092;2023-02-13T10:35:39;9.10;99.90
46458;DHT22;32155;54.076;12.092;2023-02-13T10:38:16;9.10;99.90
46458;DHT22;32155;54.076;12.092;2023-02-13T11:09:18;9.40;99.90
46458;DHT22;32155;54.076;12.092;2023-02-13T13:14:03;9.00;99.90
46458;DHT22;32155;54.076;12.092;2023-02-13T13:30:49;9.00;99.90
46458;DHT22;32155;54.076;12.092;2023-02-13T13:37:04;9.30;99.90
46458;DHT22;32155;54.076;12.092;2023-02-13T13:40:23;9.30;99.90
46458;DHT22;32155;54.076;12.092;2023-02-13T13:57:06;9.70;99.90
46458;DHT22;32155;54.076;12.092;2023-02-13T14:03:39;9.50;99.90
46458;DHT22;32155;54.076;12.092;2023-02-13T14:19:53;9.30;99.90
46458;DHT22;32155;54.076;12.092;2023-02-13T14:23:04;9.40;99.90
46458;DHT22;32155;54.076;12.092;2023-02-13T14:25:42;9.30;99.90
46458;DHT22;32155;54.076;12.092;2023-02-13T14:28:31;9.30;99.90
46458;DHT22;32155;54.076;12.092;2023-02-13T14:31:40;9.20;99.90
46458;DHT22;32155;54.076;12.092;2023-02-13T14:35:05;9.20;99.90
46458;DHT22;32155;54.076;12.092;2023-02-13T14:38:05;9.20;99.90
46458;DHT22;32155;54.076;12.092;2023-02-13T14:41:24;9.20;99.90
46458;DHT22;32155;54.076;12.092;2023-02-13T14:51:46;8.90;99.90
46458;DHT22;32155;54.076;12.092;2023-02-13T15:04:39;8.80;99.90
46458;DHT22;32155;54.076;12.092;2023-02-13T15:07:31;8.90;99.90
46458;DHT22;32155;54.076;12.092;2023-02-13T15:14:41;8.80;99.90
46458;DHT22;32155;54.076;12.092;2023-02-13T15:17:38;8.60;99.90
46458;DHT22;32155;54.076;12.092;2023-02-13T15:23:36;8.60;99.90
46458;DHT22;32155;54.076;12.092;2023-02-13T15:33:18;8.30;99.90
46458;DHT22;32155;54.076;12.092;2023-02-13T15:35:59;8.20;99.90
46458;DHT22;32155;54.076;12.092;2023-02-13T15:45:45;8.00;99.90
46458;DHT22;32155;54.076;12.092;2023-02-13T15:48:54;8.10;99.90
46458;DHT22;32155;54.076;12.092;2023-02-13T15:52:55;8.00;99.90
46458;DHT22;32155;54.076;12.092;2023-02-13T15:55:25;7.90;99.90
46458;DHT22;32155;54.076;12.092;2023-02-13T16:01:54;7.80;99.90
46458;DHT22;32155;54.076;12.092;2023-02-13T16:07:53;7.70;99.90
46458;DHT22;32155;54.076;12.092;2023-02-13T16:10:38;7.60;99.90
46458;DHT22;32155;54.076;12.092;2023-02-13T16:13:15;7.60;99.90
46458;DHT22;32155;54.076;12.092;2023-02-13T16:16:08;7.60;99.90
46458;DHT22;32155;54.076;12.092;2023-02-13T16:22:55;7.60;99.90
46458;DHT22;32155;54.076;12.092;2023-02-13T16:25:35;7.50;99.90
46458;DHT22;32155;54.076;12.092;2023-02-13T16:28:30;7.40;99.90
46458;DHT22;32155;54.076;12.092;2023-02-13T16:38:31;7.50;99.90
46458;DHT22;32155;54.076;12.092;2023-02-13T16:42:00;7.40;99.90
46458;DHT22;32155;54.076;12.092;2023-02-13T16:44:32;7.50;99.90
46458;DHT22;32155;54.076;12.092;2023-02-13T16:47:21;7.40;99.90
46458;DHT22;32155;54.076;12.092;2023-02-13T16:56:41;7.40;99.90
46458;DHT22;32155;54.076;12.092;2023-02-13T17:03:06;7.30;99.90
46458;DHT22;32155;54.076;12.092;2023-02-13T17:06:00;7.30;99.90
46458;DHT22;32155;54.076;12.092;2023-02-13T17:18:53;7.20;99.90
46458;DHT22;32155;54.076;12.092;2023-02-13T17:22:15;7.20;99.90
46458;DHT22;32155;54.076;12.092;2023-02-13T17:25:34;7.20;99.90
46458;DHT22;32155;54.076;12.092;2023-02-13T17:28:36;7.20;99.90
46458;DHT22;32155;54.076;12.092;2023-02-13T17:31:13;7.20;99.90
46458;DHT22;32155;54.076;12.092;2023-02-13T17:33:58;7.20;99.90
46458;DHT22;32155;54.076;12.092;2023-02-13T17:37:09;7.10;99.90
46458;DHT22;32155;54.076;12.092;2023-02-13T17:40:05;7.20;99.90
46458;DHT22;32155;54.076;12.092;2023-02-13T17:42:39;7.20;99.90
46458;DHT22;32155;54.076;12.092;2023-02-13T17:45:13;7.10;99.90
46458;DHT22;32155;54.076;12.092;2023-02-13T17:47:59;7.10;99.90
46458;DHT22;32155;54.076;12.092;2023-02-13T17:51:19;7.10;99.90
46458;DHT22;32155;54.076;12.092;2023-02-13T17:53:39;7.10;99.90
46458;DHT22;32155;54.076;12.092;2023-02-13T17:56:13;7.10;99.90
46458;DHT22;32155;54.076;12.092;2023-02-13T17:59:07;7.00;99.90
46458;DHT22;32155;54.076;12.092;2023-02-13T18:01:54;7.10;99.90
46458;DHT22;32155;54.076;12.092;2023-02-13T18:04:52;7.00;99.90
46458;DHT22;32155;54.076;12.092;2023-02-13T18:07:35;7.00;99.90
46458;DHT22;32155;54.076;12.092;2023-02-13T18:10:20;7.00;99.90
46458;DHT22;32155;54.076;12.092;2023-02-13T18:13:33;7.00;99.90
46458;DHT22;32155;54.076;12.092;2023-02-13T18:22:52;7.00;99.90
46458;DHT22;32155;54.076;12.092;2023-02-13T18:25:46;6.90;99.90
46458;DHT22;32155;54.076;12.092;2023-02-13T18:28:32;6.90;99.90
46458;DHT22;32155;54.076;12.092;2023-02-13T18:34:43;6.90;99.90
46458;DHT22;32155;54.076;12.092;2023-02-13T18:41:15;7.00;99.90
46458;DHT22;32155;54.076;12.092;2023-02-13T18:44:02;7.00;99.90
46458;DHT22;32155;54.076;12.092;2023-02-13T18:46:45;7.00;99.90
46458;DHT22;32155;54.076;12.092;2023-02-13T18:49:26;7.00;99.90
46458;DHT22;32155;54.076;12.092;2023-02-13T18:52:02;7.00;99.90
46458;DHT22;32155;54.076;12.092;2023-02-13T18:54:43;7.00;99.90
46458;DHT22;32155;54.076;12.092;2023-02-13T18:57:27;7.00;99.90
46458;DHT22;32155;54.076;12.092;2023-02-13T19:00:33;7.00;99.90
46458;DHT22;32155;54.076;12.092;2023-02-13T19:03:13;7.00;99.90
46458;DHT22;32155;54.076;12.092;2023-02-13T19:06:02;7.00;99.90
46458;DHT22;32155;54.076;12.092;2023-02-13T19:08:53;7.00;99.90
46458;DHT22;32155;54.076;12.092;2023-02-13T19:11:48;7.00;99.90
46458;DHT22;32155;54.076;12.092;2023-02-13T19:17:51;6.90;99.90
46458;DHT22;32155;54.076;12.092;2023-02-13T19:20:24;7.00;99.90
46458;DHT22;32155;54.076;12.092;2023-02-13T19:23:04;6.90;99.90
46458;DHT22;32155;54.076;12.092;2023-02-13T19:25:40;6.90;99.90
46458;DHT22;32155;54.076;12.092;2023-02-13T19:31:13;6.90;99.90
46458;DHT22;32155;54.076;12.092;2023-02-13T19:33:53;7.00;99.90
46458;DHT22;32155;54.076;12.092;2023-02-13T19:36:42;7.20;99.90
46458;DHT22;32155;54.076;12.092;2023-02-13T19:39:12;7.10;99.90
46458;DHT22;32155;54.076;12.092;2023-02-13T19:41:51;6.90;99.90
46458;DHT22;32155;54.076;12.092;2023-02-13T19:44:39;6.90;99.90
46458;DHT22;32155;54.076;12.092;2023-02-13T19:50:47;6.90;99.90
46458;DHT22;32155;54.076;12.092;2023-02-13T19:53:13;6.80;99.90
46458;DHT22;32155;54.076;12.092;2023-02-13T19:55:47;6.80;99.90
46458;DHT22;32155;54.076;12.092;2023-02-13T19:58:18;6.80;99.90
46458;DHT22;32155;54.076;12.092;2023-02-13T20:07:11;6.90;99.90
46458;DHT22;32155;54.076;12.092;2023-02-13T20:09:46;6.80;99.90
46458;DHT22;32155;54.076;12.092;2023-02-13T20:12:16;6.90;99.90
46458;DHT22;32155;54.076;12.092;2023-02-13T20:18:34;6.80;99.90
46458;DHT22;32155;54.076;12.092;2023-02-13T20:24:46;6.80;99.90
46458;DHT22;32155;54.076;12.092;2023-02-13T20:28:01;6.80;99.90
46458;DHT22;32155;54.076;12.092;2023-02-13T20:30:45;6.70;99.90
46458;DHT22;32155;54.076;12.092;2023-02-13T20:33:56;6.80;99.90
46458;DHT22;32155;54.076;12.092;2023-02-13T20:36:45;6.80;99.90
46458;DHT22;32155;54.076;12.092;2023-02-13T20:39:37;6.80;99.90
46458;DHT22;32155;54.076;12.092;2023-02-13T20:42:22;6.80;99.90
46458;DHT22;32155;54.076;12.092;2023-02-13T20:45:02;6.80;99.90
46458;DHT22;32155;54.076;12.092;2023-02-13T20:47:57;6.90;99.90
46458;DHT22;32155;54.076;12.092;2023-02-13T20:51:51;6.90;99.90
46458;DHT22;32155;54.076;12.092;2023-02-13T20:54:38;6.90;99.90
46458;DHT22;32155;54.076;12.092;2023-02-13T21:01:22;6.80;99.90
46458;DHT22;32155;54.076;12.092;2023-02-13T21:03:54;6.70;99.90
46458;DHT22;32155;54.076;12.092;2023-02-13T21:06:47;6.70;99.90
46458;DHT22;32155;54.076;12.092;2023-02-13T21:09:28;6.70;99.90
46458;DHT22;32155;54.076;12.092;2023-02-13T21:12:15;6.70;99.90
46458;DHT22;32155;54.076;12.092;2023-02-13T21:17:53;6.70;99.90
46458;DHT22;32155;54.076;12.092;2023-02-13T21:23:56;6.80;99.90
46458;DHT22;32155;54.076;12.092;2023-02-13T21:26:50;6.80;99.90
46458;DHT22;32155;54.076;12.092;2023-02-13T21:29:22;6.70;99.90
46458;DHT22;32155;54.076;12.092;2023-02-13T21:32:12;6.70;99.90
46458;DHT22;32155;54.076;12.092;2023-02-13T21:35:06;6.70;99.90
46458;DHT22;32155;54.076;12.092;2023-02-13T21:37:57;6.70;99.90
46458;DHT22;32155;54.076;12.092;2023-02-13T21:40:32;6.70;99.90
46458;DHT22;32155;54.076;12.092;2023-02-13T21:43:15;6.70;99.90
46458;DHT22;32155;54.076;12.092;2023-02-13T21:46:34;6.70;99.90
46458;DHT22;32155;54.076;12.092;2023-02-13T21:57:11;6.70;99.90
46458;DHT22;32155;54.076;12.092;2023-02-13T22:00:40;6.70;99.90
46458;DHT22;32155;54.076;12.092;2023-02-13T22:03:41;6.80;99.90
46458;DHT22;32155;54.076;12.092;2023-02-13T22:07:23;6.80;99.90
46458;DHT22;32155;54.076;12.092;2023-02-13T22:10:22;6.70;99.90
46458;DHT22;32155;54.076;12.092;2023-02-13T22:13:30;6.70;99.90
46458;DHT22;32155;54.076;12.092;2023-02-13T22:16:38;6.70;99.90
46458;DHT22;32155;54.076;12.092;2023-02-13T22:19:40;6.70;99.90
46458;DHT22;32155;54.076;12.092;2023-02-13T22:26:04;6.60;99.90
46458;DHT22;32155;54.076;12.092;2023-02-13T22:28:47;6.60;99.90
46458;DHT22;32155;54.076;12.092;2023-02-13T22:31:43;6.70;99.90
46458;DHT22;32155;54.076;12.092;2023-02-13T22:34:27;6.60;99.90
46458;DHT22;32155;54.076;12.092;2023-02-13T22:37:28;6.60;99.90
46458;DHT22;32155;54.076;12.092;2023-02-13T22:40:26;6.60;99.90
46458;DHT22;32155;54.076;12.092;2023-02-13T22:43:16;6.60;99.90
46458;DHT22;32155;54.076;12.092;2023-02-13T22:46:09;6.70;99.90
46458;DHT22;32155;54.076;12.092;2023-02-13T22:49:03;6.70;99.90
46458;DHT22;32155;54.076;12.092;2023-02-13T22:55:23;6.60;99.90
46458;DHT22;32155;54.076;12.092;2023-02-13T22:58:07;6.60;99.90
46458;DHT22;32155;54.076;12.092;2023-02-13T23:01:07;6.60;99.90
46458;DHT22;32155;54.076;12.092;2023-02-13T23:03:51;6.60;99.90
46458;DHT22;32155;54.076;12.092;2023-02-13T23:09:45;6.60;99.90
46458;DHT22;32155;54.076;12.092;2023-02-13T23:12:18;6.60;99.90
46458;DHT22;32155;54.076;12.092;2023-02-13T23:15:35;6.50;99.90
46458;DHT22;32155;54.076;12.092;2023-02-13T23:18:27;6.60;99.90
46458;DHT22;32155;54.076;12.092;2023-02-13T23:24:16;6.60;99.90
46458;DHT22;32155;54.076;12.092;2023-02-13T23:27:05;6.60;99.90
46458;DHT22;32155;54.076;12.092;2023-02-13T23:29:40;6.50;99.90
46458;DHT22;32155;54.076;12.092;2023-02-13T23:35:39;6.80;99.90
46458;DHT22;32155;54.076;12.092;2023-02-13T23:38:19;6.80;99.90
46458;DHT22;32155;54.076;12.092;2023-02-13T23:41:15;6.60;99.90
46458;DHT22;32155;54.076;12.092;2023-02-13T23:43:50;6.50;99.90
46458;DHT22;32155;54.076;12.092;2023-02-13T23:46:28;6.50;99.90
46458;DHT22;32155;54.076;12.092;2023-02-13T23:49:03;6.50;99.90
46458;DHT22;32155;54.076;12.092;2023-02-13T23:51:48;6.50;99.90
46458;DHT22;32155;54.076;12.092;2023-02-13T23:54:24;6.50;99.90
46458;DHT22;32155;54.076;12.092;2023-02-13T23:56:59;6.50;99.90
46458;DHT22;32155;54.076;12.092;2023-02-13T23:59:51;6.50;99.90
